PKC105 UHPP-UHMM
Flight info
| Callsign | PKC105 |
|---|---|
| Flight time | 2h 7m |
| Altitude | 22000 |
| Route | BAKEN4M BAKEN A812 OSKET OSKET5K |
| Aircraft | YK40/M-SDFIRWY/H |
Departure
| Time | 2026-04-30 03:53 |
|---|---|
| Airport | Yelizovo Airport (UHPP) |
Arrival
| Time | 2026-04-30 06:00 |
|---|---|
| Airport | Sokol Airport (UHMM) |
| Time | Latitude | Longitude | Altitude | Speed | Heading |
|---|---|---|---|---|---|
| 2026-04-30 03:46 | 53.17062 | 158.42735 | 56 ft | 3 kts | 149° |
| 2026-04-30 03:46 | 53.17047 | 158.42871 | 56 ft | 21 kts | 59° |
| 2026-04-30 03:46 | 53.17104 | 158.43034 | 56 ft | 25 kts | 60° |
| 2026-04-30 03:47 | 53.17209 | 158.43341 | 56 ft | 20 kts | 57° |
| 2026-04-30 03:47 | 53.17276 | 158.43518 | 56 ft | 16 kts | 56° |
| 2026-04-30 03:47 | 53.17327 | 158.43663 | 56 ft | 13 kts | 60° |
| 2026-04-30 03:47 | 53.17358 | 158.43750 | 56 ft | 12 kts | 59° |
| 2026-04-30 03:48 | 53.17424 | 158.43941 | 56 ft | 14 kts | 60° |
| 2026-04-30 03:48 | 53.17471 | 158.44089 | 56 ft | 15 kts | 69° |
| 2026-04-30 03:48 | 53.17515 | 158.44270 | 56 ft | 18 kts | 68° |
| 2026-04-30 03:48 | 53.17549 | 158.44406 | 56 ft | 18 kts | 66° |
| 2026-04-30 03:49 | 53.17642 | 158.44579 | 57 ft | 14 kts | 340° |
| 2026-04-30 03:49 | 53.17725 | 158.44519 | 56 ft | 13 kts | 337° |
| 2026-04-30 03:49 | 53.17788 | 158.44476 | 56 ft | 15 kts | 337° |
| 2026-04-30 03:49 | 53.17900 | 158.44397 | 56 ft | 19 kts | 336° |
| 2026-04-30 03:50 | 53.18084 | 158.44266 | 56 ft | 22 kts | 336° |
| 2026-04-30 03:50 | 53.18148 | 158.44220 | 56 ft | 20 kts | 336° |
| 2026-04-30 03:50 | 53.18307 | 158.44110 | 56 ft | 16 kts | 316° |
| 2026-04-30 03:50 | 53.18279 | 158.44037 | 56 ft | 7 kts | 92° |
| 2026-04-30 03:51 | 53.18289 | 158.44083 | 56 ft | 5 kts | 64° |
| 2026-04-30 03:51 | 53.18286 | 158.44132 | 56 ft | 0 kts | 158° |
| 2026-04-30 03:51 | 53.18267 | 158.44145 | 56 ft | 16 kts | 157° |
| 2026-04-30 03:52 | 53.17970 | 158.44351 | 57 ft | 75 kts | 157° |
| 2026-04-30 03:52 | 53.17578 | 158.44629 | 57 ft | 107 kts | 156° |
| 2026-04-30 03:52 | 53.16587 | 158.45285 | 418 ft | 120 kts | 161° |
| 2026-04-30 03:52 | 53.16045 | 158.45625 | 655 ft | 130 kts | 160° |
| 2026-04-30 03:53 | 53.14902 | 158.46343 | 1323 ft | 136 kts | 159° |
| 2026-04-30 03:53 | 53.14324 | 158.46713 | 1703 ft | 133 kts | 159° |
| 2026-04-30 03:53 | 53.13502 | 158.47247 | 2162 ft | 123 kts | 159° |
| 2026-04-30 03:53 | 53.12392 | 158.47972 | 2381 ft | 139 kts | 159° |
| 2026-04-30 03:54 | 53.11407 | 158.48619 | 2387 ft | 168 kts | 159° |
| 2026-04-30 03:54 | 53.10238 | 158.49388 | 2462 ft | 190 kts | 159° |
| 2026-04-30 03:54 | 53.08919 | 158.49942 | 2612 ft | 202 kts | 183° |
| 2026-04-30 03:54 | 53.08010 | 158.49564 | 2737 ft | 206 kts | 208° |
| 2026-04-30 03:55 | 53.06850 | 158.47121 | 3009 ft | 212 kts | 257° |
| 2026-04-30 03:55 | 53.06830 | 158.45509 | 3218 ft | 212 kts | 282° |
| 2026-04-30 03:55 | 53.07935 | 158.43033 | 3777 ft | 204 kts | 333° |
| 2026-04-30 03:55 | 53.09294 | 158.42505 | 4161 ft | 200 kts | 349° |
| 2026-04-30 03:56 | 53.10167 | 158.42088 | 4409 ft | 197 kts | 335° |
| 2026-04-30 03:56 | 53.11837 | 158.40828 | 4892 ft | 197 kts | 334° |
| 2026-04-30 03:56 | 53.12654 | 158.40205 | 5121 ft | 196 kts | 333° |
| 2026-04-30 03:56 | 53.14281 | 158.38931 | 5566 ft | 193 kts | 333° |
| 2026-04-30 03:57 | 53.15093 | 158.38286 | 5781 ft | 193 kts | 333° |
| 2026-04-30 03:57 | 53.16708 | 158.36987 | 6102 ft | 197 kts | 333° |
| 2026-04-30 03:57 | 53.17939 | 158.35982 | 6348 ft | 199 kts | 333° |
| 2026-04-30 03:57 | 53.19179 | 158.34955 | 6603 ft | 200 kts | 333° |
| 2026-04-30 03:58 | 53.20018 | 158.34255 | 6770 ft | 201 kts | 333° |
| 2026-04-30 03:58 | 53.21668 | 158.32880 | 7079 ft | 201 kts | 333° |
| 2026-04-30 03:58 | 53.22930 | 158.31853 | 7337 ft | 201 kts | 333° |
| 2026-04-30 03:58 | 53.24190 | 158.30811 | 7603 ft | 202 kts | 333° |
| 2026-04-30 03:59 | 53.25019 | 158.30121 | 7782 ft | 202 kts | 333° |
| 2026-04-30 03:59 | 53.26703 | 158.28796 | 8120 ft | 201 kts | 336° |
| 2026-04-30 03:59 | 53.28000 | 158.27904 | 8364 ft | 202 kts | 336° |
| 2026-04-30 03:59 | 53.28867 | 158.27296 | 8508 ft | 202 kts | 336° |
| 2026-04-30 04:00 | 53.30587 | 158.26079 | 8801 ft | 202 kts | 336° |
| 2026-04-30 04:00 | 53.31884 | 158.25153 | 9032 ft | 202 kts | 336° |
| 2026-04-30 04:00 | 53.32733 | 158.24544 | 9190 ft | 203 kts | 336° |
| 2026-04-30 04:00 | 53.34032 | 158.23608 | 9416 ft | 203 kts | 336° |
| 2026-04-30 04:01 | 53.35756 | 158.22362 | 9724 ft | 203 kts | 336° |
| 2026-04-30 04:01 | 53.37038 | 158.21431 | 9943 ft | 203 kts | 336° |
| 2026-04-30 04:01 | 53.38338 | 158.20485 | 10172 ft | 204 kts | 336° |
| 2026-04-30 04:01 | 53.39640 | 158.19534 | 10385 ft | 204 kts | 335° |
| 2026-04-30 04:02 | 53.40914 | 158.18457 | 10613 ft | 204 kts | 332° |
| 2026-04-30 04:02 | 53.42144 | 158.17320 | 10827 ft | 204 kts | 332° |
| 2026-04-30 04:02 | 53.42990 | 158.16583 | 10982 ft | 204 kts | 334° |
| 2026-04-30 04:02 | 53.44269 | 158.15570 | 11201 ft | 204 kts | 334° |
| 2026-04-30 04:03 | 53.45531 | 158.14546 | 11413 ft | 204 kts | 333° |
| 2026-04-30 04:03 | 53.47236 | 158.13144 | 11689 ft | 205 kts | 333° |
| 2026-04-30 04:03 | 53.48510 | 158.12087 | 11896 ft | 205 kts | 333° |
| 2026-04-30 04:03 | 53.49798 | 158.11015 | 12106 ft | 206 kts | 333° |
| 2026-04-30 04:04 | 53.50646 | 158.10307 | 12246 ft | 206 kts | 333° |
| 2026-04-30 04:04 | 53.51919 | 158.09242 | 12450 ft | 206 kts | 333° |
| 2026-04-30 04:04 | 53.53640 | 158.07794 | 12714 ft | 207 kts | 333° |
| 2026-04-30 04:04 | 53.54488 | 158.07080 | 12844 ft | 207 kts | 333° |
| 2026-04-30 04:05 | 53.55781 | 158.05984 | 13037 ft | 208 kts | 333° |
| 2026-04-30 04:05 | 53.57062 | 158.04894 | 13235 ft | 208 kts | 333° |
| 2026-04-30 04:05 | 53.58777 | 158.03426 | 13500 ft | 208 kts | 332° |
| 2026-04-30 04:05 | 53.60067 | 158.02312 | 13692 ft | 208 kts | 332° |
| 2026-04-30 04:06 | 53.61343 | 158.01205 | 13884 ft | 208 kts | 332° |
| 2026-04-30 04:06 | 53.62632 | 158.00085 | 14074 ft | 209 kts | 332° |
| 2026-04-30 04:06 | 53.63932 | 157.98952 | 14263 ft | 209 kts | 332° |
| 2026-04-30 04:06 | 53.65217 | 157.97829 | 14446 ft | 209 kts | 332° |
| 2026-04-30 04:07 | 53.66510 | 157.96695 | 14632 ft | 210 kts | 332° |
| 2026-04-30 04:07 | 53.67794 | 157.95564 | 14819 ft | 210 kts | 332° |
| 2026-04-30 04:07 | 53.68665 | 157.94795 | 14941 ft | 210 kts | 332° |
| 2026-04-30 04:08 | 53.71250 | 157.92502 | 15294 ft | 211 kts | 332° |
| 2026-04-30 04:08 | 53.72546 | 157.91345 | 15479 ft | 211 kts | 332° |
| 2026-04-30 04:08 | 53.73847 | 157.90181 | 15657 ft | 212 kts | 331° |
| 2026-04-30 04:08 | 53.75131 | 157.89027 | 15811 ft | 212 kts | 331° |
| 2026-04-30 04:09 | 53.76882 | 157.87447 | 16000 ft | 215 kts | 331° |
| 2026-04-30 04:09 | 53.78191 | 157.86259 | 16154 ft | 216 kts | 331° |
| 2026-04-30 04:09 | 53.79086 | 157.85446 | 16257 ft | 216 kts | 331° |
| 2026-04-30 04:09 | 53.80850 | 157.83839 | 16460 ft | 217 kts | 331° |
| 2026-04-30 04:10 | 53.82165 | 157.82637 | 16606 ft | 218 kts | 330° |
| 2026-04-30 04:10 | 53.83498 | 157.81418 | 16760 ft | 218 kts | 330° |
| 2026-04-30 04:10 | 53.84831 | 157.80196 | 16911 ft | 219 kts | 330° |
| 2026-04-30 04:10 | 53.85714 | 157.79384 | 17009 ft | 219 kts | 330° |
| 2026-04-30 04:11 | 53.87067 | 157.78136 | 17159 ft | 219 kts | 330° |
| 2026-04-30 04:11 | 53.88400 | 157.76906 | 17315 ft | 220 kts | 330° |
| 2026-04-30 04:11 | 53.89739 | 157.75665 | 17451 ft | 220 kts | 330° |
| 2026-04-30 04:11 | 53.91076 | 157.74425 | 17596 ft | 220 kts | 330° |
| 2026-04-30 04:12 | 53.92417 | 157.73175 | 17746 ft | 221 kts | 330° |
| 2026-04-30 04:12 | 53.93763 | 157.71915 | 17891 ft | 221 kts | 330° |
| 2026-04-30 04:12 | 53.95543 | 157.70236 | 18083 ft | 221 kts | 330° |
| 2026-04-30 04:12 | 53.96891 | 157.68955 | 18230 ft | 222 kts | 330° |
| 2026-04-30 04:13 | 53.97776 | 157.68111 | 18325 ft | 222 kts | 330° |
| 2026-04-30 04:13 | 53.99131 | 157.66817 | 18466 ft | 222 kts | 329° |
| 2026-04-30 04:13 | 54.00465 | 157.65540 | 18603 ft | 222 kts | 329° |
| 2026-04-30 04:13 | 54.01822 | 157.64238 | 18752 ft | 223 kts | 329° |
| 2026-04-30 04:14 | 54.03163 | 157.62949 | 18894 ft | 223 kts | 329° |
| 2026-04-30 04:14 | 54.04964 | 157.61211 | 19079 ft | 223 kts | 329° |
| 2026-04-30 04:14 | 54.05855 | 157.60352 | 19167 ft | 224 kts | 329° |
| 2026-04-30 04:14 | 54.07202 | 157.59050 | 19299 ft | 224 kts | 329° |
| 2026-04-30 04:15 | 54.09019 | 157.57286 | 19476 ft | 224 kts | 329° |
| 2026-04-30 04:15 | 54.10364 | 157.55977 | 19605 ft | 225 kts | 329° |
| 2026-04-30 04:15 | 54.11261 | 157.55100 | 19689 ft | 225 kts | 329° |
| 2026-04-30 04:15 | 54.12632 | 157.53754 | 19820 ft | 225 kts | 329° |
| 2026-04-30 04:16 | 54.13986 | 157.52417 | 19946 ft | 226 kts | 328° |
| 2026-04-30 04:16 | 54.15343 | 157.51073 | 20071 ft | 226 kts | 328° |
| 2026-04-30 04:16 | 54.16696 | 157.49725 | 20199 ft | 226 kts | 328° |
| 2026-04-30 04:16 | 54.18049 | 157.48370 | 20329 ft | 226 kts | 328° |
| 2026-04-30 04:17 | 54.19398 | 157.47014 | 20456 ft | 227 kts | 328° |
| 2026-04-30 04:17 | 54.21203 | 157.45195 | 20623 ft | 227 kts | 328° |
| 2026-04-30 04:17 | 54.22108 | 157.44279 | 20705 ft | 227 kts | 328° |
| 2026-04-30 04:17 | 54.23479 | 157.42888 | 20831 ft | 227 kts | 328° |
| 2026-04-30 04:18 | 54.24819 | 157.41528 | 20954 ft | 228 kts | 328° |
| 2026-04-30 04:18 | 54.26194 | 157.40131 | 21078 ft | 228 kts | 328° |
| 2026-04-30 04:18 | 54.27996 | 157.38301 | 21236 ft | 228 kts | 328° |
| 2026-04-30 04:18 | 54.28915 | 157.37366 | 21316 ft | 228 kts | 327° |
| 2026-04-30 04:19 | 54.30272 | 157.35982 | 21433 ft | 229 kts | 327° |
| 2026-04-30 04:19 | 54.31649 | 157.34572 | 21437 ft | 234 kts | 327° |
| 2026-04-30 04:19 | 54.33069 | 157.33105 | 21421 ft | 239 kts | 327° |
| 2026-04-30 04:19 | 54.34976 | 157.31111 | 21438 ft | 244 kts | 326° |
| 2026-04-30 04:20 | 54.35937 | 157.30098 | 21446 ft | 246 kts | 326° |
| 2026-04-30 04:20 | 54.37391 | 157.28552 | 21455 ft | 248 kts | 326° |
| 2026-04-30 04:20 | 54.39353 | 157.26453 | 21470 ft | 252 kts | 326° |
| 2026-04-30 04:20 | 54.40340 | 157.25391 | 21474 ft | 253 kts | 326° |
| 2026-04-30 04:21 | 54.41841 | 157.23767 | 21482 ft | 255 kts | 326° |
| 2026-04-30 04:21 | 54.43346 | 157.22131 | 21483 ft | 257 kts | 326° |
| 2026-04-30 04:21 | 54.44846 | 157.20497 | 21490 ft | 258 kts | 326° |
| 2026-04-30 04:21 | 54.46859 | 157.18292 | 21500 ft | 260 kts | 326° |
| 2026-04-30 04:22 | 54.47880 | 157.17168 | 21499 ft | 261 kts | 326° |
| 2026-04-30 04:22 | 54.49395 | 157.15489 | 21501 ft | 262 kts | 326° |
| 2026-04-30 04:22 | 54.50927 | 157.13782 | 21508 ft | 262 kts | 326° |
| 2026-04-30 04:22 | 54.52451 | 157.12071 | 21503 ft | 263 kts | 325° |
| 2026-04-30 04:23 | 54.53980 | 157.10345 | 21505 ft | 264 kts | 325° |
| 2026-04-30 04:23 | 54.56022 | 157.08025 | 21504 ft | 265 kts | 325° |
| 2026-04-30 04:23 | 54.57060 | 157.06834 | 21505 ft | 265 kts | 325° |
| 2026-04-30 04:23 | 54.58580 | 157.05083 | 21503 ft | 266 kts | 325° |
| 2026-04-30 04:24 | 54.60112 | 157.03308 | 21519 ft | 266 kts | 325° |
| 2026-04-30 04:24 | 54.62143 | 157.00938 | 21538 ft | 266 kts | 325° |
| 2026-04-30 04:24 | 54.63162 | 156.99742 | 21552 ft | 266 kts | 324° |
| 2026-04-30 04:24 | 54.64681 | 156.97948 | 21558 ft | 266 kts | 324° |
| 2026-04-30 04:25 | 54.66202 | 156.96143 | 21562 ft | 266 kts | 324° |
| 2026-04-30 04:25 | 54.67723 | 156.94328 | 21567 ft | 266 kts | 324° |
| 2026-04-30 04:25 | 54.69242 | 156.92506 | 21573 ft | 266 kts | 324° |
| 2026-04-30 04:25 | 54.70762 | 156.90674 | 21585 ft | 266 kts | 324° |
| 2026-04-30 04:26 | 54.72274 | 156.88840 | 21599 ft | 266 kts | 324° |
| 2026-04-30 04:26 | 54.73785 | 156.86995 | 21604 ft | 266 kts | 324° |
| 2026-04-30 04:26 | 54.75277 | 156.85165 | 21610 ft | 266 kts | 324° |
| 2026-04-30 04:26 | 54.76777 | 156.83316 | 21615 ft | 266 kts | 324° |
| 2026-04-30 04:27 | 54.78284 | 156.81448 | 21622 ft | 267 kts | 324° |
| 2026-04-30 04:27 | 54.79797 | 156.79558 | 21623 ft | 267 kts | 323° |
| 2026-04-30 04:27 | 54.81294 | 156.77678 | 21621 ft | 267 kts | 323° |
| 2026-04-30 04:27 | 54.82791 | 156.75789 | 21621 ft | 267 kts | 323° |
| 2026-04-30 04:28 | 54.84283 | 156.73897 | 21629 ft | 267 kts | 323° |
| 2026-04-30 04:28 | 54.85777 | 156.71994 | 21631 ft | 267 kts | 323° |
| 2026-04-30 04:28 | 54.87265 | 156.70085 | 21632 ft | 267 kts | 323° |
| 2026-04-30 04:28 | 54.88746 | 156.68173 | 21635 ft | 267 kts | 323° |
| 2026-04-30 04:29 | 54.90227 | 156.66252 | 21634 ft | 267 kts | 323° |
| 2026-04-30 04:29 | 54.91708 | 156.64319 | 21633 ft | 267 kts | 323° |
| 2026-04-30 04:29 | 54.93275 | 156.62610 | 21650 ft | 266 kts | 332° |
| 2026-04-30 04:29 | 54.94905 | 156.61122 | 21620 ft | 267 kts | 332° |
| 2026-04-30 04:30 | 54.96549 | 156.59598 | 21627 ft | 267 kts | 332° |
| 2026-04-30 04:30 | 54.98175 | 156.58072 | 21640 ft | 267 kts | 331° |
| 2026-04-30 04:30 | 54.99804 | 156.56531 | 21645 ft | 267 kts | 331° |
| 2026-04-30 04:30 | 55.01425 | 156.54985 | 21645 ft | 267 kts | 331° |
| 2026-04-30 04:31 | 55.03040 | 156.53435 | 21649 ft | 267 kts | 331° |
| 2026-04-30 04:31 | 55.04676 | 156.51857 | 21654 ft | 267 kts | 331° |
| 2026-04-30 04:31 | 55.06273 | 156.50305 | 21662 ft | 266 kts | 331° |
| 2026-04-30 04:31 | 55.07886 | 156.48727 | 21664 ft | 266 kts | 331° |
| 2026-04-30 04:32 | 55.09494 | 156.47141 | 21661 ft | 266 kts | 330° |
| 2026-04-30 04:32 | 55.11120 | 156.45526 | 21662 ft | 266 kts | 330° |
| 2026-04-30 04:32 | 55.12724 | 156.43922 | 21662 ft | 267 kts | 330° |
| 2026-04-30 04:32 | 55.14327 | 156.42311 | 21660 ft | 266 kts | 330° |
| 2026-04-30 04:33 | 55.15919 | 156.40700 | 21662 ft | 266 kts | 330° |
| 2026-04-30 04:33 | 55.17525 | 156.39064 | 21663 ft | 266 kts | 330° |
| 2026-04-30 04:33 | 55.19108 | 156.37437 | 21664 ft | 266 kts | 330° |
| 2026-04-30 04:33 | 55.21227 | 156.35242 | 21664 ft | 266 kts | 330° |
| 2026-04-30 04:34 | 55.22307 | 156.34114 | 21663 ft | 266 kts | 329° |
| 2026-04-30 04:34 | 55.23890 | 156.32454 | 21668 ft | 266 kts | 329° |
| 2026-04-30 04:34 | 55.25468 | 156.30786 | 21675 ft | 266 kts | 329° |
| 2026-04-30 04:34 | 55.27033 | 156.29120 | 21672 ft | 266 kts | 329° |
| 2026-04-30 04:35 | 55.28606 | 156.27438 | 21669 ft | 266 kts | 329° |
| 2026-04-30 04:35 | 55.30193 | 156.25731 | 21670 ft | 266 kts | 329° |
| 2026-04-30 04:35 | 55.31772 | 156.24019 | 21670 ft | 266 kts | 328° |
| 2026-04-30 04:35 | 55.33855 | 156.21742 | 21675 ft | 266 kts | 328° |
| 2026-04-30 04:36 | 55.34892 | 156.20601 | 21675 ft | 266 kts | 328° |
| 2026-04-30 04:36 | 55.36450 | 156.18880 | 21677 ft | 266 kts | 328° |
| 2026-04-30 04:36 | 55.38027 | 156.17127 | 21678 ft | 266 kts | 328° |
| 2026-04-30 04:36 | 55.39580 | 156.15393 | 21677 ft | 266 kts | 328° |
| 2026-04-30 04:37 | 55.41138 | 156.13643 | 21681 ft | 266 kts | 328° |
| 2026-04-30 04:37 | 55.42696 | 156.11877 | 21683 ft | 266 kts | 328° |
| 2026-04-30 04:37 | 55.44234 | 156.10120 | 21689 ft | 266 kts | 328° |
| 2026-04-30 04:37 | 55.45792 | 156.08327 | 21690 ft | 266 kts | 328° |
| 2026-04-30 04:38 | 55.47846 | 156.05948 | 21694 ft | 266 kts | 328° |
| 2026-04-30 04:38 | 55.48875 | 156.04750 | 21691 ft | 267 kts | 327° |
| 2026-04-30 04:38 | 55.50409 | 156.02962 | 21695 ft | 267 kts | 327° |
| 2026-04-30 04:38 | 55.51967 | 156.01138 | 21694 ft | 267 kts | 327° |
| 2026-04-30 04:39 | 55.53492 | 155.99348 | 21703 ft | 266 kts | 328° |
| 2026-04-30 04:39 | 55.55121 | 155.97784 | 21707 ft | 265 kts | 334° |
| 2026-04-30 04:39 | 55.56772 | 155.96362 | 21681 ft | 266 kts | 334° |
| 2026-04-30 04:39 | 55.58437 | 155.94894 | 21696 ft | 266 kts | 334° |
| 2026-04-30 04:40 | 55.60077 | 155.93425 | 21704 ft | 265 kts | 334° |
| 2026-04-30 04:40 | 55.61700 | 155.91956 | 21709 ft | 265 kts | 334° |
| 2026-04-30 04:40 | 55.63353 | 155.90448 | 21712 ft | 265 kts | 334° |
| 2026-04-30 04:40 | 55.64971 | 155.88962 | 21715 ft | 266 kts | 334° |
| 2026-04-30 04:41 | 55.67157 | 155.86935 | 21716 ft | 266 kts | 334° |
| 2026-04-30 04:41 | 55.68236 | 155.85928 | 21716 ft | 266 kts | 334° |
| 2026-04-30 04:41 | 55.69877 | 155.84393 | 21714 ft | 266 kts | 333° |
| 2026-04-30 04:41 | 55.71507 | 155.82863 | 21718 ft | 267 kts | 333° |
| 2026-04-30 04:42 | 55.73151 | 155.81311 | 21718 ft | 267 kts | 333° |
| 2026-04-30 04:42 | 55.75322 | 155.79245 | 21723 ft | 267 kts | 333° |
| 2026-04-30 04:42 | 55.76396 | 155.78215 | 21721 ft | 267 kts | 333° |
| 2026-04-30 04:42 | 55.78027 | 155.76636 | 21722 ft | 267 kts | 333° |
| 2026-04-30 04:43 | 55.79661 | 155.75040 | 21722 ft | 267 kts | 333° |
| 2026-04-30 04:43 | 55.81275 | 155.73454 | 21718 ft | 267 kts | 333° |
| 2026-04-30 04:43 | 55.83425 | 155.71330 | 21723 ft | 267 kts | 333° |
| 2026-04-30 04:43 | 55.84499 | 155.70264 | 21719 ft | 267 kts | 333° |
| 2026-04-30 04:44 | 55.86115 | 155.68652 | 21723 ft | 267 kts | 333° |
| 2026-04-30 04:44 | 55.87734 | 155.67030 | 21720 ft | 268 kts | 332° |
| 2026-04-30 04:44 | 55.89368 | 155.65385 | 21715 ft | 268 kts | 332° |
| 2026-04-30 04:44 | 55.90985 | 155.63748 | 21718 ft | 268 kts | 332° |
| 2026-04-30 04:45 | 55.92580 | 155.62120 | 21715 ft | 268 kts | 332° |
| 2026-04-30 04:45 | 55.94196 | 155.60455 | 21719 ft | 268 kts | 332° |
| 2026-04-30 04:45 | 55.96338 | 155.58231 | 21722 ft | 268 kts | 332° |
| 2026-04-30 04:45 | 55.97400 | 155.57118 | 21726 ft | 268 kts | 332° |
| 2026-04-30 04:46 | 55.99018 | 155.55414 | 21721 ft | 268 kts | 332° |
| 2026-04-30 04:46 | 56.00599 | 155.53738 | 21725 ft | 268 kts | 332° |
| 2026-04-30 04:46 | 56.02272 | 155.52284 | 21742 ft | 265 kts | 341° |
| 2026-04-30 04:46 | 56.03994 | 155.51143 | 21718 ft | 266 kts | 341° |
| 2026-04-30 04:47 | 56.05725 | 155.49962 | 21733 ft | 266 kts | 341° |
| 2026-04-30 04:47 | 56.07439 | 155.48769 | 21734 ft | 266 kts | 341° |
| 2026-04-30 04:47 | 56.09143 | 155.47569 | 21735 ft | 266 kts | 341° |
| 2026-04-30 04:47 | 56.10864 | 155.46355 | 21733 ft | 266 kts | 340° |
| 2026-04-30 04:48 | 56.12590 | 155.45128 | 21737 ft | 266 kts | 340° |
| 2026-04-30 04:48 | 56.14322 | 155.43883 | 21742 ft | 266 kts | 340° |
| 2026-04-30 04:48 | 56.16024 | 155.42648 | 21740 ft | 267 kts | 340° |
| 2026-04-30 04:48 | 56.17735 | 155.41394 | 21745 ft | 267 kts | 340° |
| 2026-04-30 04:49 | 56.19457 | 155.40118 | 21747 ft | 267 kts | 340° |
| 2026-04-30 04:49 | 56.21731 | 155.38411 | 21750 ft | 267 kts | 340° |
| 2026-04-30 04:49 | 56.22855 | 155.37555 | 21747 ft | 267 kts | 340° |
| 2026-04-30 04:49 | 56.24474 | 155.35898 | 21762 ft | 269 kts | 326° |
| 2026-04-30 04:50 | 56.25872 | 155.33646 | 21774 ft | 271 kts | 315° |
| 2026-04-30 04:50 | 56.27011 | 155.30977 | 21789 ft | 273 kts | 304° |
| 2026-04-30 04:50 | 56.27880 | 155.27898 | 21798 ft | 276 kts | 294° |
| 2026-04-30 04:50 | 56.28419 | 155.24623 | 21806 ft | 278 kts | 283° |
| 2026-04-30 04:51 | 56.28625 | 155.21161 | 21816 ft | 280 kts | 273° |
| 2026-04-30 04:51 | 56.28480 | 155.17641 | 21820 ft | 282 kts | 262° |
| 2026-04-30 04:51 | 56.27757 | 155.13148 | 21836 ft | 285 kts | 248° |
| 2026-04-30 04:51 | 56.27172 | 155.11017 | 21841 ft | 286 kts | 241° |
| 2026-04-30 04:52 | 56.25615 | 155.07210 | 21848 ft | 287 kts | 227° |
| 2026-04-30 04:52 | 56.24352 | 155.04422 | 21855 ft | 285 kts | 241° |
| 2026-04-30 04:52 | 56.23779 | 155.02328 | 21865 ft | 284 kts | 251° |
| 2026-04-30 04:52 | 56.23329 | 154.98921 | 21881 ft | 281 kts | 267° |
| 2026-04-30 04:53 | 56.23407 | 154.95450 | 21889 ft | 277 kts | 283° |
| 2026-04-30 04:53 | 56.24004 | 154.92189 | 21907 ft | 274 kts | 299° |
| 2026-04-30 04:53 | 56.25515 | 154.88592 | 21913 ft | 269 kts | 321° |
| 2026-04-30 04:53 | 56.26494 | 154.87286 | 21921 ft | 266 kts | 332° |
| 2026-04-30 04:54 | 56.28171 | 154.85928 | 21925 ft | 264 kts | 340° |
| 2026-04-30 04:54 | 56.29878 | 154.84726 | 21888 ft | 266 kts | 340° |
| 2026-04-30 04:54 | 56.31594 | 154.83472 | 21863 ft | 267 kts | 340° |
| 2026-04-30 04:54 | 56.33294 | 154.82208 | 21843 ft | 267 kts | 340° |
| 2026-04-30 04:55 | 56.35014 | 154.80914 | 21823 ft | 268 kts | 340° |
| 2026-04-30 04:55 | 56.36736 | 154.79605 | 21809 ft | 268 kts | 340° |
| 2026-04-30 04:55 | 56.39013 | 154.77863 | 21791 ft | 269 kts | 340° |
| 2026-04-30 04:55 | 56.40168 | 154.76975 | 21782 ft | 269 kts | 340° |
| 2026-04-30 04:56 | 56.41887 | 154.75641 | 21768 ft | 269 kts | 339° |
| 2026-04-30 04:56 | 56.43601 | 154.74303 | 21753 ft | 270 kts | 339° |
| 2026-04-30 04:56 | 56.45319 | 154.72954 | 21742 ft | 270 kts | 339° |
| 2026-04-30 04:56 | 56.47038 | 154.71596 | 21729 ft | 270 kts | 339° |
| 2026-04-30 04:57 | 56.49303 | 154.69797 | 21714 ft | 270 kts | 339° |
| 2026-04-30 04:57 | 56.51022 | 154.68419 | 21703 ft | 270 kts | 339° |
| 2026-04-30 04:57 | 56.52175 | 154.67490 | 21696 ft | 270 kts | 339° |
| 2026-04-30 04:57 | 56.54447 | 154.65640 | 21685 ft | 270 kts | 339° |
| 2026-04-30 04:58 | 56.55574 | 154.64716 | 21679 ft | 270 kts | 339° |
| 2026-04-30 04:58 | 56.57292 | 154.63298 | 21671 ft | 270 kts | 339° |
| 2026-04-30 04:58 | 56.58993 | 154.61885 | 21662 ft | 270 kts | 339° |
| 2026-04-30 04:58 | 56.60685 | 154.60469 | 21653 ft | 270 kts | 338° |
| 2026-04-30 04:59 | 56.62394 | 154.59029 | 21644 ft | 270 kts | 338° |
| 2026-04-30 04:59 | 56.64071 | 154.57603 | 21631 ft | 270 kts | 338° |
| 2026-04-30 04:59 | 56.65770 | 154.56146 | 21619 ft | 270 kts | 338° |
| 2026-04-30 04:59 | 56.67473 | 154.54671 | 21611 ft | 270 kts | 338° |
| 2026-04-30 05:00 | 56.69160 | 154.53200 | 21602 ft | 270 kts | 338° |
| 2026-04-30 05:00 | 56.70837 | 154.51730 | 21591 ft | 270 kts | 338° |
| 2026-04-30 05:00 | 56.72533 | 154.50233 | 21581 ft | 270 kts | 338° |
| 2026-04-30 05:00 | 56.74228 | 154.48726 | 21573 ft | 271 kts | 338° |
| 2026-04-30 05:01 | 56.75906 | 154.47224 | 21568 ft | 271 kts | 338° |
| 2026-04-30 05:01 | 56.77589 | 154.45712 | 21562 ft | 271 kts | 338° |
| 2026-04-30 05:01 | 56.79268 | 154.44197 | 21558 ft | 270 kts | 337° |
| 2026-04-30 05:01 | 56.80941 | 154.42679 | 21551 ft | 270 kts | 337° |
| 2026-04-30 05:02 | 56.82619 | 154.41147 | 21543 ft | 270 kts | 337° |
| 2026-04-30 05:02 | 56.84295 | 154.39606 | 21536 ft | 270 kts | 337° |
| 2026-04-30 05:02 | 56.85970 | 154.38058 | 21529 ft | 271 kts | 337° |
| 2026-04-30 05:02 | 56.87642 | 154.36504 | 21518 ft | 271 kts | 337° |
| 2026-04-30 05:03 | 56.89329 | 154.34915 | 21506 ft | 271 kts | 336° |
| 2026-04-30 05:03 | 56.90989 | 154.33334 | 21496 ft | 271 kts | 336° |
| 2026-04-30 05:03 | 56.92664 | 154.31731 | 21483 ft | 271 kts | 336° |
| 2026-04-30 05:03 | 56.94333 | 154.30127 | 21469 ft | 271 kts | 336° |
| 2026-04-30 05:04 | 56.95985 | 154.28531 | 21459 ft | 271 kts | 336° |
| 2026-04-30 05:04 | 56.97641 | 154.26921 | 21446 ft | 271 kts | 335° |
| 2026-04-30 05:04 | 56.99309 | 154.25295 | 21434 ft | 272 kts | 335° |
| 2026-04-30 05:04 | 57.01550 | 154.23094 | 21433 ft | 276 kts | 335° |
| 2026-04-30 05:05 | 57.03243 | 154.21422 | 21444 ft | 278 kts | 335° |
| 2026-04-30 05:05 | 57.04935 | 154.19740 | 21463 ft | 279 kts | 335° |
| 2026-04-30 05:05 | 57.06637 | 154.18043 | 21484 ft | 280 kts | 335° |
| 2026-04-30 05:06 | 57.09497 | 154.15169 | 21527 ft | 281 kts | 335° |
| 2026-04-30 05:06 | 57.11765 | 154.12868 | 21569 ft | 282 kts | 335° |
| 2026-04-30 05:06 | 57.12915 | 154.11693 | 21591 ft | 282 kts | 335° |
| 2026-04-30 05:06 | 57.14626 | 154.09935 | 21627 ft | 283 kts | 334° |
| 2026-04-30 05:07 | 57.16344 | 154.08157 | 21664 ft | 283 kts | 334° |
| 2026-04-30 05:07 | 57.18045 | 154.06389 | 21701 ft | 283 kts | 334° |
| 2026-04-30 05:07 | 57.19759 | 154.04599 | 21737 ft | 283 kts | 334° |
| 2026-04-30 05:07 | 57.22037 | 154.02206 | 21788 ft | 283 kts | 334° |
| 2026-04-30 05:08 | 57.23733 | 154.00417 | 21825 ft | 283 kts | 334° |
| 2026-04-30 05:08 | 57.24872 | 153.99208 | 21850 ft | 283 kts | 334° |
| 2026-04-30 05:08 | 57.27141 | 153.96788 | 21900 ft | 284 kts | 334° |
| 2026-04-30 05:08 | 57.28856 | 153.94949 | 21940 ft | 284 kts | 334° |
| 2026-04-30 05:09 | 57.30555 | 153.93115 | 21973 ft | 284 kts | 334° |
| 2026-04-30 05:09 | 57.32234 | 153.91290 | 22017 ft | 284 kts | 334° |
| 2026-04-30 05:09 | 57.33939 | 153.89426 | 22057 ft | 284 kts | 333° |
| 2026-04-30 05:09 | 57.35640 | 153.87552 | 22091 ft | 284 kts | 333° |
| 2026-04-30 05:10 | 57.36756 | 153.86316 | 22115 ft | 284 kts | 333° |
| 2026-04-30 05:10 | 57.39014 | 153.83804 | 22160 ft | 284 kts | 333° |
| 2026-04-30 05:10 | 57.40152 | 153.82533 | 22180 ft | 284 kts | 333° |
| 2026-04-30 05:10 | 57.41819 | 153.80659 | 22215 ft | 284 kts | 333° |
| 2026-04-30 05:11 | 57.44062 | 153.78125 | 22261 ft | 284 kts | 333° |
| 2026-04-30 05:11 | 57.45201 | 153.76831 | 22283 ft | 284 kts | 333° |
| 2026-04-30 05:11 | 57.46883 | 153.74913 | 22315 ft | 285 kts | 333° |
| 2026-04-30 05:11 | 57.48550 | 153.73000 | 22349 ft | 285 kts | 333° |
| 2026-04-30 05:12 | 57.50233 | 153.71057 | 22383 ft | 285 kts | 333° |
| 2026-04-30 05:12 | 57.51915 | 153.69107 | 22416 ft | 285 kts | 333° |
| 2026-04-30 05:12 | 57.53580 | 153.67163 | 22446 ft | 285 kts | 332° |
| 2026-04-30 05:12 | 57.55252 | 153.65196 | 22477 ft | 285 kts | 332° |
| 2026-04-30 05:13 | 57.56924 | 153.63219 | 22513 ft | 285 kts | 332° |
| 2026-04-30 05:13 | 57.58589 | 153.61238 | 22545 ft | 285 kts | 332° |
| 2026-04-30 05:13 | 57.60252 | 153.59251 | 22574 ft | 285 kts | 332° |
| 2026-04-30 05:13 | 57.61897 | 153.57278 | 22604 ft | 285 kts | 332° |
| 2026-04-30 05:14 | 57.63557 | 153.55276 | 22634 ft | 285 kts | 332° |
| 2026-04-30 05:14 | 57.65785 | 153.52571 | 22677 ft | 285 kts | 332° |
| 2026-04-30 05:14 | 57.66873 | 153.51242 | 22696 ft | 285 kts | 332° |
| 2026-04-30 05:14 | 57.68533 | 153.49206 | 22731 ft | 285 kts | 332° |
| 2026-04-30 05:15 | 57.70187 | 153.47166 | 22727 ft | 287 kts | 332° |
| 2026-04-30 05:15 | 57.71862 | 153.45093 | 22661 ft | 290 kts | 332° |
| 2026-04-30 05:15 | 57.73542 | 153.43002 | 22607 ft | 292 kts | 331° |
| 2026-04-30 05:15 | 57.75220 | 153.40918 | 22563 ft | 293 kts | 332° |
| 2026-04-30 05:16 | 57.76964 | 153.38995 | 22543 ft | 292 kts | 335° |
| 2026-04-30 05:16 | 57.78749 | 153.37118 | 22501 ft | 293 kts | 335° |
| 2026-04-30 05:16 | 57.80512 | 153.35240 | 22464 ft | 293 kts | 335° |
| 2026-04-30 05:16 | 57.82271 | 153.33347 | 22425 ft | 294 kts | 334° |
| 2026-04-30 05:17 | 57.84048 | 153.31424 | 22388 ft | 294 kts | 334° |
| 2026-04-30 05:17 | 57.86403 | 153.28857 | 22338 ft | 294 kts | 334° |
| 2026-04-30 05:17 | 57.87576 | 153.27574 | 22315 ft | 295 kts | 334° |
| 2026-04-30 05:17 | 57.89328 | 153.25648 | 22279 ft | 295 kts | 334° |
| 2026-04-30 05:18 | 57.91095 | 153.23697 | 22243 ft | 295 kts | 334° |
| 2026-04-30 05:18 | 57.92858 | 153.21742 | 22210 ft | 295 kts | 334° |
| 2026-04-30 05:18 | 57.94624 | 153.19775 | 22179 ft | 295 kts | 333° |
| 2026-04-30 05:18 | 57.96382 | 153.17809 | 22143 ft | 295 kts | 333° |
| 2026-04-30 05:19 | 57.98148 | 153.15823 | 22114 ft | 295 kts | 333° |
| 2026-04-30 05:19 | 57.99902 | 153.13838 | 22086 ft | 295 kts | 333° |
| 2026-04-30 05:19 | 58.01642 | 153.11859 | 22056 ft | 295 kts | 333° |
| 2026-04-30 05:19 | 58.03400 | 153.09851 | 22030 ft | 295 kts | 333° |
| 2026-04-30 05:20 | 58.05138 | 153.07851 | 22025 ft | 294 kts | 333° |
| 2026-04-30 05:20 | 58.06877 | 153.05837 | 22026 ft | 293 kts | 333° |
| 2026-04-30 05:20 | 58.08616 | 153.03812 | 22027 ft | 292 kts | 333° |
| 2026-04-30 05:20 | 58.10326 | 153.01814 | 22022 ft | 292 kts | 333° |
| 2026-04-30 05:21 | 58.12058 | 152.99782 | 22027 ft | 292 kts | 333° |
| 2026-04-30 05:21 | 58.13780 | 152.97751 | 22024 ft | 292 kts | 332° |
| 2026-04-30 05:21 | 58.15413 | 152.95822 | 22016 ft | 291 kts | 332° |
| 2026-04-30 05:21 | 58.17143 | 152.93770 | 22016 ft | 291 kts | 332° |
| 2026-04-30 05:22 | 58.18849 | 152.91739 | 22018 ft | 291 kts | 332° |
| 2026-04-30 05:22 | 58.20561 | 152.89688 | 22021 ft | 291 kts | 332° |
| 2026-04-30 05:22 | 58.22265 | 152.87634 | 22020 ft | 291 kts | 332° |
| 2026-04-30 05:22 | 58.24520 | 152.84895 | 22010 ft | 291 kts | 332° |
| 2026-04-30 05:23 | 58.26220 | 152.82817 | 22001 ft | 291 kts | 332° |
| 2026-04-30 05:23 | 58.27341 | 152.81442 | 21991 ft | 291 kts | 332° |
| 2026-04-30 05:23 | 58.29025 | 152.79364 | 22001 ft | 290 kts | 332° |
| 2026-04-30 05:23 | 58.30723 | 152.77257 | 22001 ft | 291 kts | 332° |
| 2026-04-30 05:24 | 58.32416 | 152.75143 | 22004 ft | 290 kts | 331° |
| 2026-04-30 05:24 | 58.34100 | 152.73047 | 22021 ft | 290 kts | 332° |
| 2026-04-30 05:24 | 58.35809 | 152.71091 | 22015 ft | 289 kts | 333° |
| 2026-04-30 05:24 | 58.37527 | 152.69132 | 22001 ft | 289 kts | 333° |
| 2026-04-30 05:25 | 58.39247 | 152.67149 | 22002 ft | 289 kts | 333° |
| 2026-04-30 05:25 | 58.40963 | 152.65158 | 21991 ft | 289 kts | 333° |
| 2026-04-30 05:25 | 58.42679 | 152.63158 | 21999 ft | 289 kts | 333° |
| 2026-04-30 05:25 | 58.44373 | 152.61173 | 21986 ft | 289 kts | 333° |
| 2026-04-30 05:26 | 58.46093 | 152.59146 | 21989 ft | 289 kts | 333° |
| 2026-04-30 05:26 | 58.47797 | 152.57121 | 21987 ft | 289 kts | 333° |
| 2026-04-30 05:26 | 58.49492 | 152.55096 | 21985 ft | 289 kts | 333° |
| 2026-04-30 05:26 | 58.51189 | 152.53052 | 21982 ft | 289 kts | 333° |
| 2026-04-30 05:27 | 58.52888 | 152.50995 | 21979 ft | 289 kts | 333° |
| 2026-04-30 05:27 | 58.54587 | 152.48930 | 21968 ft | 289 kts | 332° |
| 2026-04-30 05:27 | 58.56273 | 152.46872 | 21963 ft | 289 kts | 332° |
| 2026-04-30 05:27 | 58.58512 | 152.44130 | 21957 ft | 290 kts | 332° |
| 2026-04-30 05:28 | 58.59650 | 152.42732 | 21950 ft | 290 kts | 332° |
| 2026-04-30 05:28 | 58.61350 | 152.40639 | 21949 ft | 290 kts | 332° |
| 2026-04-30 05:28 | 58.63582 | 152.37882 | 21944 ft | 290 kts | 332° |
| 2026-04-30 05:28 | 58.64721 | 152.36470 | 21939 ft | 290 kts | 332° |
| 2026-04-30 05:29 | 58.66970 | 152.33685 | 21940 ft | 288 kts | 333° |
| 2026-04-30 05:29 | 58.68136 | 152.32446 | 21940 ft | 287 kts | 335° |
| 2026-04-30 05:29 | 58.70471 | 152.30060 | 21922 ft | 287 kts | 335° |
| 2026-04-30 05:29 | 58.72234 | 152.28217 | 21924 ft | 287 kts | 335° |
| 2026-04-30 05:30 | 58.73991 | 152.26466 | 21932 ft | 285 kts | 339° |
| 2026-04-30 05:30 | 58.75788 | 152.24931 | 21911 ft | 285 kts | 340° |
| 2026-04-30 05:30 | 58.77605 | 152.23370 | 21892 ft | 285 kts | 340° |
| 2026-04-30 05:30 | 58.78799 | 152.22333 | 21780 ft | 285 kts | 340° |
| 2026-04-30 05:31 | 58.80581 | 152.20775 | 21586 ft | 279 kts | 339° |
| 2026-04-30 05:31 | 58.82899 | 152.18735 | 21284 ft | 271 kts | 339° |
| 2026-04-30 05:31 | 58.84034 | 152.17732 | 21136 ft | 268 kts | 339° |
| 2026-04-30 05:31 | 58.85690 | 152.16266 | 20904 ft | 260 kts | 339° |
| 2026-04-30 05:32 | 58.87282 | 152.14851 | 20641 ft | 248 kts | 339° |
| 2026-04-30 05:32 | 58.88822 | 152.13489 | 20342 ft | 237 kts | 339° |
| 2026-04-30 05:32 | 58.90287 | 152.12160 | 20009 ft | 230 kts | 339° |
| 2026-04-30 05:32 | 58.91704 | 152.10854 | 19687 ft | 224 kts | 339° |
| 2026-04-30 05:33 | 58.93095 | 152.09560 | 19327 ft | 221 kts | 339° |
| 2026-04-30 05:33 | 58.94449 | 152.08299 | 18955 ft | 218 kts | 339° |
| 2026-04-30 05:33 | 58.95807 | 152.07037 | 18593 ft | 216 kts | 339° |
| 2026-04-30 05:33 | 58.97156 | 152.05786 | 18229 ft | 214 kts | 339° |
| 2026-04-30 05:34 | 58.98935 | 152.04144 | 17754 ft | 212 kts | 338° |
| 2026-04-30 05:34 | 58.99821 | 152.03332 | 17517 ft | 215 kts | 338° |
| 2026-04-30 05:34 | 59.01181 | 152.02097 | 17182 ft | 221 kts | 338° |
| 2026-04-30 05:34 | 59.02584 | 152.00832 | 16873 ft | 225 kts | 338° |
| 2026-04-30 05:35 | 59.04005 | 151.99550 | 16577 ft | 227 kts | 338° |
| 2026-04-30 05:35 | 59.05925 | 151.97821 | 16193 ft | 229 kts | 338° |
| 2026-04-30 05:35 | 59.07347 | 151.96539 | 15923 ft | 229 kts | 338° |
| 2026-04-30 05:35 | 59.08306 | 151.95674 | 15741 ft | 229 kts | 338° |
| 2026-04-30 05:36 | 59.09747 | 151.94379 | 15461 ft | 229 kts | 338° |
| 2026-04-30 05:36 | 59.11182 | 151.93086 | 15196 ft | 228 kts | 336° |
| 2026-04-30 05:36 | 59.13055 | 151.91196 | 14854 ft | 227 kts | 335° |
| 2026-04-30 05:36 | 59.13910 | 151.90335 | 14700 ft | 227 kts | 335° |
| 2026-04-30 05:37 | 59.15386 | 151.88858 | 14435 ft | 226 kts | 335° |
| 2026-04-30 05:37 | 59.16780 | 151.87471 | 14170 ft | 225 kts | 335° |
| 2026-04-30 05:37 | 59.18167 | 151.86087 | 13916 ft | 225 kts | 335° |
| 2026-04-30 05:37 | 59.19556 | 151.84698 | 13653 ft | 224 kts | 335° |
| 2026-04-30 05:38 | 59.20935 | 151.83311 | 13405 ft | 224 kts | 335° |
| 2026-04-30 05:38 | 59.22316 | 151.81918 | 13157 ft | 222 kts | 334° |
| 2026-04-30 05:38 | 59.23668 | 151.80551 | 12902 ft | 219 kts | 334° |
| 2026-04-30 05:38 | 59.25011 | 151.79190 | 12628 ft | 217 kts | 334° |
| 2026-04-30 05:39 | 59.26343 | 151.77835 | 12366 ft | 215 kts | 334° |
| 2026-04-30 05:39 | 59.28088 | 151.76056 | 12016 ft | 213 kts | 334° |
| 2026-04-30 05:39 | 59.28968 | 151.75157 | 11842 ft | 213 kts | 334° |
| 2026-04-30 05:39 | 59.30275 | 151.73820 | 11607 ft | 210 kts | 334° |
| 2026-04-30 05:40 | 59.31550 | 151.72514 | 11395 ft | 208 kts | 334° |
| 2026-04-30 05:40 | 59.32829 | 151.71199 | 11162 ft | 206 kts | 334° |
| 2026-04-30 05:40 | 59.34089 | 151.69897 | 10949 ft | 204 kts | 334° |
| 2026-04-30 05:40 | 59.35330 | 151.68608 | 10726 ft | 203 kts | 334° |
| 2026-04-30 05:41 | 59.36570 | 151.67319 | 10484 ft | 203 kts | 333° |
| 2026-04-30 05:41 | 59.37820 | 151.66020 | 10200 ft | 200 kts | 333° |
| 2026-04-30 05:41 | 59.39025 | 151.64771 | 9910 ft | 195 kts | 333° |
| 2026-04-30 05:41 | 59.40198 | 151.63554 | 9607 ft | 191 kts | 333° |
| 2026-04-30 05:42 | 59.41360 | 151.62347 | 9298 ft | 188 kts | 333° |
| 2026-04-30 05:42 | 59.42879 | 151.60763 | 8874 ft | 185 kts | 333° |
| 2026-04-30 05:42 | 59.43634 | 151.59973 | 8662 ft | 184 kts | 333° |
| 2026-04-30 05:42 | 59.45104 | 151.58427 | 8211 ft | 179 kts | 333° |
| 2026-04-30 05:43 | 59.45832 | 151.57660 | 7968 ft | 177 kts | 333° |
| 2026-04-30 05:43 | 59.47257 | 151.56152 | 7516 ft | 174 kts | 333° |
| 2026-04-30 05:43 | 59.47966 | 151.55405 | 7291 ft | 177 kts | 333° |
| 2026-04-30 05:43 | 59.49468 | 151.53822 | 6978 ft | 189 kts | 332° |
| 2026-04-30 05:44 | 59.50250 | 151.52998 | 6857 ft | 194 kts | 332° |
| 2026-04-30 05:44 | 59.51440 | 151.51739 | 6689 ft | 198 kts | 332° |
| 2026-04-30 05:44 | 59.52671 | 151.50432 | 6525 ft | 201 kts | 332° |
| 2026-04-30 05:44 | 59.53897 | 151.49120 | 6378 ft | 203 kts | 332° |
| 2026-04-30 05:45 | 59.55135 | 151.47786 | 6226 ft | 204 kts | 332° |
| 2026-04-30 05:45 | 59.56368 | 151.46449 | 6138 ft | 201 kts | 332° |
| 2026-04-30 05:45 | 59.57586 | 151.45116 | 6129 ft | 197 kts | 332° |
| 2026-04-30 05:45 | 59.58760 | 151.43826 | 6139 ft | 192 kts | 332° |
| 2026-04-30 05:46 | 59.59917 | 151.42546 | 6161 ft | 189 kts | 332° |
| 2026-04-30 05:46 | 59.61041 | 151.41295 | 6169 ft | 186 kts | 332° |
| 2026-04-30 05:46 | 59.62174 | 151.40028 | 6170 ft | 185 kts | 332° |
| 2026-04-30 05:46 | 59.63647 | 151.38368 | 6158 ft | 183 kts | 331° |
| 2026-04-30 05:47 | 59.64382 | 151.37537 | 6159 ft | 183 kts | 331° |
| 2026-04-30 05:47 | 59.65485 | 151.36284 | 6148 ft | 182 kts | 331° |
| 2026-04-30 05:47 | 59.66571 | 151.35045 | 6150 ft | 181 kts | 331° |
| 2026-04-30 05:47 | 59.67659 | 151.33797 | 6144 ft | 181 kts | 330° |
| 2026-04-30 05:48 | 59.68748 | 151.32539 | 6139 ft | 181 kts | 330° |
| 2026-04-30 05:48 | 59.69846 | 151.31277 | 6140 ft | 180 kts | 332° |
| 2026-04-30 05:48 | 59.70971 | 151.30199 | 6134 ft | 180 kts | 335° |
| 2026-04-30 05:48 | 59.72497 | 151.28787 | 6062 ft | 184 kts | 335° |
| 2026-04-30 05:49 | 59.73270 | 151.28059 | 6032 ft | 185 kts | 335° |
| 2026-04-30 05:49 | 59.74818 | 151.26592 | 5967 ft | 186 kts | 334° |
| 2026-04-30 05:49 | 59.75592 | 151.25851 | 5933 ft | 187 kts | 334° |
| 2026-04-30 05:49 | 59.76745 | 151.24681 | 5891 ft | 187 kts | 334° |
| 2026-04-30 05:50 | 59.77910 | 151.23511 | 5844 ft | 187 kts | 334° |
| 2026-04-30 05:50 | 59.79057 | 151.22372 | 5809 ft | 187 kts | 334° |
| 2026-04-30 05:50 | 59.80294 | 151.21602 | 5766 ft | 186 kts | 358° |
| 2026-04-30 05:50 | 59.81570 | 151.21945 | 5751 ft | 185 kts | 8° |
| 2026-04-30 05:51 | 59.82844 | 151.22404 | 5619 ft | 190 kts | 8° |
| 2026-04-30 05:51 | 59.84159 | 151.22819 | 5475 ft | 193 kts | 7° |
| 2026-04-30 05:51 | 59.85931 | 151.23112 | 5233 ft | 191 kts | 358° |
| 2026-04-30 05:51 | 59.86807 | 151.22957 | 5070 ft | 189 kts | 352° |
| 2026-04-30 05:52 | 59.88090 | 151.22430 | 4785 ft | 189 kts | 344° |
| 2026-04-30 05:52 | 59.89218 | 151.21164 | 4510 ft | 191 kts | 317° |
| 2026-04-30 05:52 | 59.89841 | 151.18907 | 4201 ft | 186 kts | 281° |
| 2026-04-30 05:52 | 59.89925 | 151.16388 | 3905 ft | 179 kts | 269° |
| 2026-04-30 05:53 | 59.90011 | 151.13969 | 3568 ft | 173 kts | 276° |
| 2026-04-30 05:53 | 59.90118 | 151.11629 | 3223 ft | 167 kts | 277° |
| 2026-04-30 05:53 | 59.90208 | 151.09405 | 2866 ft | 159 kts | 275° |
| 2026-04-30 05:53 | 59.90228 | 151.07410 | 2799 ft | 121 kts | 270° |
| 2026-04-30 05:54 | 59.90266 | 151.05902 | 2715 ft | 103 kts | 274° |
| 2026-04-30 05:54 | 59.90300 | 151.04450 | 2575 ft | 108 kts | 274° |
| 2026-04-30 05:54 | 59.90335 | 151.02945 | 2501 ft | 110 kts | 273° |
| 2026-04-30 05:54 | 59.90333 | 151.01405 | 2498 ft | 112 kts | 270° |
| 2026-04-30 05:55 | 59.90323 | 150.99867 | 2511 ft | 112 kts | 270° |
| 2026-04-30 05:55 | 59.90379 | 150.97795 | 2606 ft | 111 kts | 275° |
| 2026-04-30 05:55 | 59.90415 | 150.96759 | 2670 ft | 111 kts | 275° |
| 2026-04-30 05:55 | 59.90448 | 150.95226 | 2750 ft | 112 kts | 273° |
| 2026-04-30 05:56 | 59.90478 | 150.93678 | 2816 ft | 114 kts | 275° |
| 2026-04-30 05:56 | 59.90534 | 150.92087 | 2787 ft | 115 kts | 275° |
| 2026-04-30 05:56 | 59.90583 | 150.90483 | 2709 ft | 117 kts | 275° |
| 2026-04-30 05:56 | 59.90633 | 150.88882 | 2580 ft | 114 kts | 274° |
| 2026-04-30 05:57 | 59.90672 | 150.87288 | 2354 ft | 114 kts | 274° |
| 2026-04-30 05:57 | 59.90736 | 150.85280 | 1997 ft | 105 kts | 274° |
| 2026-04-30 05:57 | 59.90765 | 150.84340 | 1836 ft | 100 kts | 274° |
| 2026-04-30 05:57 | 59.90811 | 150.83006 | 1565 ft | 97 kts | 273° |
| 2026-04-30 05:58 | 59.90839 | 150.81636 | 1361 ft | 103 kts | 272° |
| 2026-04-30 05:58 | 59.90877 | 150.80182 | 1230 ft | 103 kts | 273° |
| 2026-04-30 05:58 | 59.90934 | 150.78337 | 967 ft | 99 kts | 273° |
| 2026-04-30 05:58 | 59.90958 | 150.77383 | 860 ft | 106 kts | 273° |
| 2026-04-30 05:59 | 59.90995 | 150.75888 | 709 ft | 108 kts | 272° |
| 2026-04-30 05:59 | 59.91032 | 150.74425 | 570 ft | 102 kts | 272° |
| 2026-04-30 05:59 | 59.91077 | 150.72795 | 553 ft | 71 kts | 273° |
| 2026-04-30 05:59 | 59.91092 | 150.72224 | 555 ft | 53 kts | 273° |
| 2026-04-30 06:00 | 59.91107 | 150.71661 | 555 ft | 25 kts | 274° |
| 2026-04-30 06:00 | 59.91098 | 150.71558 | 554 ft | 4 kts | 109° |
| 2026-04-30 06:00 | 59.91098 | 150.71655 | 555 ft | 12 kts | 90° |
| 2026-04-30 06:00 | 59.91098 | 150.71811 | 555 ft | 19 kts | 90° |
| 2026-04-30 06:01 | 59.91095 | 150.72075 | 556 ft | 18 kts | 93° |
| 2026-04-30 06:01 | 59.91089 | 150.72308 | 555 ft | 16 kts | 93° |
| 2026-04-30 06:01 | 59.91083 | 150.72516 | 554 ft | 13 kts | 93° |
| 2026-04-30 06:01 | 59.91103 | 150.72670 | 555 ft | 10 kts | 24° |
| 2026-04-30 06:02 | 59.91156 | 150.72678 | 557 ft | 5 kts | 2° |
| 2026-04-30 06:02 | 59.91180 | 150.72679 | 558 ft | 4 kts | 2° |
| 2026-04-30 06:02 | 59.91237 | 150.72685 | 567 ft | 19 kts | 4° |
| 2026-04-30 06:02 | 59.91329 | 150.72649 | 575 ft | 6 kts | 329° |
| 2026-04-30 06:03 | 59.91339 | 150.72647 | 576 ft | 0 kts | 13° |
| 2026-04-30 06:03 | 59.91361 | 150.72650 | 577 ft | 4 kts | 4° |
| 2026-04-30 06:03 | 59.91367 | 150.72652 | 578 ft | 0 kts | 4° |